createdAt,value
2018-08-14T00:01:49.094Z,23.03
2018-08-14T00:04:17.867Z,23.06
2018-08-14T00:06:46.471Z,23.03
2018-08-14T00:09:15.155Z,23.04
2018-08-14T00:11:43.688Z,23.04
2018-08-14T00:14:13.045Z,23.03
2018-08-14T00:16:41.754Z,23.02
2018-08-14T00:19:10.409Z,22.99
2018-08-14T00:21:39.123Z,22.99
2018-08-14T00:24:08.497Z,23.00
2018-08-14T00:26:37.328Z,23.01
2018-08-14T00:29:06.035Z,23.05
2018-08-14T00:31:34.713Z,22.42
2018-08-14T00:34:03.349Z,23.10
2018-08-14T00:36:31.993Z,23.13
2018-08-14T00:39:00.642Z,23.13
2018-08-14T00:41:29.353Z,23.14
2018-08-14T00:43:57.913Z,23.14
2018-08-14T00:46:26.508Z,23.01
2018-08-14T00:48:55.136Z,23.16
2018-08-14T00:51:23.781Z,23.15
2018-08-14T00:53:52.356Z,23.15
2018-08-14T00:56:21.055Z,23.11
2018-08-14T00:58:49.845Z,23.13
2018-08-14T01:01:18.470Z,23.11
2018-08-14T01:03:47.251Z,23.11
2018-08-14T01:06:15.800Z,23.11
2018-08-14T01:08:44.605Z,23.13
2018-08-14T01:11:13.462Z,23.16
2018-08-14T01:13:42.161Z,23.17
2018-08-14T01:16:10.750Z,23.19
2018-08-14T01:18:39.364Z,23.19
2018-08-14T01:21:08.001Z,23.17
2018-08-14T01:23:36.823Z,23.16
2018-08-14T01:26:05.523Z,23.17
2018-08-14T01:28:34.125Z,23.17
2018-08-14T01:31:02.709Z,23.17
2018-08-14T01:33:31.334Z,23.20
2018-08-14T01:35:59.876Z,23.20
2018-08-14T01:38:28.462Z,23.19
2018-08-14T01:40:57.004Z,23.18
2018-08-14T01:43:25.768Z,23.19
2018-08-14T01:45:54.992Z,23.20
2018-08-14T01:48:23.740Z,23.19
2018-08-14T01:50:52.415Z,23.17
2018-08-14T01:53:21.126Z,23.16
2018-08-14T01:55:49.798Z,23.17
2018-08-14T01:58:18.526Z,23.15
2018-08-14T02:00:47.114Z,23.16
2018-08-14T02:03:15.734Z,23.14
2018-08-14T02:05:44.528Z,23.13
2018-08-14T02:08:13.217Z,23.13
2018-08-14T02:10:42.028Z,23.12
2018-08-14T02:13:10.668Z,23.11
2018-08-14T02:15:39.324Z,23.10
2018-08-14T02:18:08.460Z,23.11
2018-08-14T02:20:37.063Z,23.11
2018-08-14T02:23:05.795Z,23.12
2018-08-14T02:25:34.379Z,23.14
2018-08-14T02:28:02.983Z,23.14
2018-08-14T02:30:31.636Z,23.14
2018-08-14T02:33:00.232Z,23.11
2018-08-14T02:35:28.831Z,23.10
2018-08-14T02:37:57.560Z,23.08
2018-08-14T02:40:26.162Z,23.06
2018-08-14T02:42:54.752Z,23.05
2018-08-14T02:45:23.393Z,23.00
2018-08-14T02:47:52.038Z,23.02
2018-08-14T02:50:20.755Z,23.01
2018-08-14T02:52:49.499Z,23.00
2018-08-14T02:55:20.906Z,22.98
2018-08-14T02:57:49.647Z,22.97
2018-08-14T03:00:20.622Z,22.92
2018-08-14T03:02:49.274Z,22.92
2018-08-14T03:05:17.924Z,22.93
2018-08-14T03:07:46.604Z,22.94
2018-08-14T03:10:15.203Z,22.96
2018-08-14T03:12:44.224Z,22.96
2018-08-14T03:15:14.693Z,22.95
2018-08-14T03:17:43.388Z,22.96
2018-08-14T03:20:12.053Z,22.94
2018-08-14T03:22:40.684Z,22.96
2018-08-14T03:25:09.400Z,22.92
2018-08-14T03:27:38.034Z,22.92
2018-08-14T03:30:07.083Z,22.91
2018-08-14T03:32:35.747Z,22.91
2018-08-14T03:35:05.208Z,22.92
2018-08-14T03:37:33.823Z,22.87
2018-08-14T03:40:02.421Z,22.88
2018-08-14T03:42:31.103Z,22.85
2018-08-14T03:44:59.765Z,22.84
2018-08-14T03:47:28.480Z,22.82
2018-08-14T03:49:57.114Z,22.81
2018-08-14T03:52:25.755Z,22.36
2018-08-14T03:54:54.522Z,22.84
2018-08-14T03:57:23.280Z,22.84
2018-08-14T03:59:51.880Z,19.76
2018-08-14T04:02:20.597Z,22.83
2018-08-14T04:04:49.302Z,22.84
2018-08-14T04:07:17.900Z,22.84
2018-08-14T04:09:46.547Z,22.85
2018-08-14T04:12:15.182Z,22.88
2018-08-14T04:14:43.762Z,22.85
2018-08-14T04:17:12.311Z,22.82
2018-08-14T04:19:40.941Z,22.83
2018-08-14T04:22:09.838Z,22.80
2018-08-14T04:24:38.422Z,22.81
2018-08-14T04:27:07.024Z,22.80
2018-08-14T04:29:35.894Z,22.79
2018-08-14T04:32:04.675Z,22.77
2018-08-14T04:34:33.269Z,22.74
2018-08-14T04:37:01.913Z,22.74
2018-08-14T04:39:30.571Z,22.75
2018-08-14T04:41:59.288Z,22.79
2018-08-14T04:44:27.956Z,22.82
2018-08-14T04:46:56.631Z,22.84
2018-08-14T04:49:25.475Z,22.86
2018-08-14T04:51:54.417Z,22.86
2018-08-14T04:54:23.055Z,22.86
2018-08-14T04:56:51.738Z,22.86
2018-08-14T04:59:20.387Z,22.84
2018-08-14T05:01:49.034Z,22.84
2018-08-14T05:04:17.624Z,22.81
2018-08-14T05:06:46.194Z,22.77
2018-08-14T05:09:15.787Z,22.75
2018-08-14T05:11:44.697Z,22.74
2018-08-14T05:14:13.533Z,22.70
2018-08-14T05:16:42.331Z,22.68
2018-08-14T05:19:10.976Z,22.69
2018-08-14T05:21:39.876Z,22.71
2018-08-14T05:24:08.707Z,22.70
2018-08-14T05:26:37.393Z,22.68
2018-08-14T05:29:06.123Z,22.71
2018-08-14T05:31:34.767Z,22.72
2018-08-14T05:34:03.468Z,22.71
2018-08-14T05:36:32.214Z,22.71
2018-08-14T05:39:00.988Z,22.72
2018-08-14T05:41:29.859Z,22.70
2018-08-14T05:43:58.740Z,22.69
2018-08-14T05:46:27.859Z,22.71
2018-08-14T05:48:56.552Z,22.73
2018-08-14T05:51:25.333Z,22.74
2018-08-14T05:53:54.052Z,22.75
2018-08-14T05:56:22.793Z,22.75
2018-08-14T05:58:51.646Z,22.73
2018-08-14T06:01:20.395Z,22.69
2018-08-14T06:03:49.171Z,22.69
2018-08-14T06:06:17.840Z,22.69
2018-08-14T06:08:46.517Z,22.71
2018-08-14T06:11:15.164Z,22.70
2018-08-14T06:13:43.827Z,22.70
2018-08-14T06:16:12.579Z,22.69
2018-08-14T06:18:41.253Z,22.69
2018-08-14T06:21:10.024Z,22.68
2018-08-14T06:23:38.633Z,22.69
2018-08-14T06:26:08.045Z,22.69
2018-08-14T06:28:36.765Z,22.68
2018-08-14T06:31:05.685Z,22.67
2018-08-14T06:33:34.388Z,22.66
2018-08-14T06:36:04.567Z,22.65
2018-08-14T06:38:33.732Z,22.63
2018-08-14T06:41:02.524Z,22.64
2018-08-14T06:43:31.725Z,22.63
2018-08-14T06:46:00.478Z,22.68
2018-08-14T06:48:29.205Z,22.71
2018-08-14T06:50:57.984Z,22.73
2018-08-14T06:53:27.012Z,22.73
2018-08-14T06:55:55.728Z,22.69
2018-08-14T06:58:24.487Z,22.67
2018-08-14T07:00:53.146Z,22.68
2018-08-14T07:03:21.843Z,22.71
2018-08-14T07:05:50.624Z,22.69
2018-08-14T07:08:19.478Z,22.72
2018-08-14T07:10:48.649Z,22.73
2018-08-14T07:13:17.592Z,22.02
2018-08-14T07:15:46.659Z,22.77
2018-08-14T07:18:16.107Z,21.51
2018-08-14T07:20:45.393Z,22.79
2018-08-14T07:23:14.293Z,22.79
2018-08-14T07:25:43.078Z,22.80
2018-08-14T07:28:11.947Z,22.87
2018-08-14T07:30:40.645Z,22.97
2018-08-14T07:33:09.647Z,23.11
2018-08-14T07:35:38.389Z,23.23
2018-08-14T07:38:07.102Z,23.37
2018-08-14T07:40:35.808Z,23.54
2018-08-14T07:43:05.027Z,23.70
2018-08-14T07:45:34.383Z,23.83
2018-08-14T07:48:03.208Z,23.87
2018-08-14T07:50:31.977Z,23.88
2018-08-14T07:53:00.919Z,23.94
2018-08-14T07:55:29.791Z,24.02
2018-08-14T07:57:59.143Z,24.18
2018-08-14T08:00:27.892Z,24.35
2018-08-14T08:02:56.746Z,24.47
2018-08-14T08:05:25.555Z,24.61
2018-08-14T08:07:54.325Z,24.69
2018-08-14T08:10:23.033Z,24.74
2018-08-14T08:12:51.795Z,24.71
2018-08-14T08:15:20.861Z,24.72
2018-08-14T08:17:49.844Z,24.78
2018-08-14T08:20:28.305Z,24.92
2018-08-14T08:22:57.232Z,25.09
2018-08-14T08:25:27.021Z,25.34
2018-08-14T08:27:56.976Z,25.55
2018-08-14T08:30:26.006Z,25.65
2018-08-14T08:32:54.858Z,25.65
2018-08-14T08:35:23.770Z,24.09
2018-08-14T08:37:52.402Z,25.41
2018-08-14T08:40:20.938Z,25.34
2018-08-14T08:42:49.651Z,25.31
2018-08-14T08:45:18.371Z,25.31
2018-08-14T08:47:47.014Z,25.24
2018-08-14T08:50:16.454Z,25.16
2018-08-14T08:52:45.775Z,25.35
2018-08-14T08:55:17.488Z,25.71
2018-08-14T08:57:46.395Z,26.01
2018-08-14T09:00:16.684Z,26.28
2018-08-14T09:02:45.443Z,26.48
2018-08-14T09:05:16.210Z,26.64
2018-08-14T09:07:44.948Z,26.96
2018-08-14T09:10:13.638Z,27.97
2018-08-14T09:12:43.030Z,28.56
2018-08-14T09:15:12.279Z,29.43
2018-08-14T09:17:42.968Z,30.65
2018-08-14T09:20:13.643Z,31.99
2018-08-14T09:22:42.538Z,32.35
2018-08-14T09:25:13.368Z,32.08
2018-08-14T09:27:43.051Z,31.56
2018-08-14T09:30:14.217Z,29.40
2018-08-14T09:32:42.907Z,31.57
2018-08-14T09:35:13.102Z,31.94
2018-08-14T09:37:41.809Z,31.96
2018-08-14T09:40:15.470Z,33.22
2018-08-14T09:42:44.173Z,34.68
2018-08-14T09:45:13.471Z,35.12
2018-08-14T09:47:42.321Z,34.87
2018-08-14T09:50:14.878Z,34.17
2018-08-14T09:52:44.311Z,33.58
2018-08-14T09:55:13.747Z,33.73
2018-08-14T09:57:42.422Z,34.85
2018-08-14T10:00:47.069Z,35.80
2018-08-14T10:03:21.509Z,37.47
2018-08-14T10:05:55.373Z,38.84
2018-08-14T10:08:24.333Z,39.95
2018-08-14T10:10:53.050Z,39.67
2018-08-14T10:13:21.928Z,39.67
2018-08-14T10:15:51.589Z,39.57
2018-08-14T10:18:25.815Z,39.57
2018-08-14T10:20:54.738Z,39.48
2018-08-14T10:23:24.081Z,38.72
2018-08-14T10:25:53.344Z,37.76
2018-08-14T10:28:24.147Z,37.56
2018-08-14T10:30:52.968Z,37.05
2018-08-14T10:33:22.126Z,36.43
2018-08-14T10:35:50.751Z,35.76
2018-08-14T10:38:20.439Z,35.18
2018-08-14T10:40:49.544Z,34.85
2018-08-14T10:43:18.210Z,34.55
2018-08-14T10:45:47.022Z,34.20
2018-08-14T10:48:15.692Z,33.84
2018-08-14T10:50:44.409Z,33.52
2018-08-14T10:53:13.046Z,33.11
2018-08-14T10:55:41.792Z,32.63
2018-08-14T10:58:10.684Z,32.47
2018-08-14T11:00:39.376Z,32.22
2018-08-14T11:03:07.916Z,31.95
2018-08-14T11:05:39.696Z,31.64
2018-08-14T11:08:08.627Z,31.96
2018-08-14T11:10:42.538Z,33.73
2018-08-14T11:13:11.202Z,34.15
2018-08-14T11:15:39.997Z,34.06
2018-08-14T11:18:09.233Z,33.94
2018-08-14T11:20:38.027Z,34.71
2018-08-14T11:23:07.027Z,37.32
2018-08-14T11:25:35.675Z,38.74
2018-08-14T11:28:04.290Z,38.16
2018-08-14T11:30:32.974Z,37.30
2018-08-14T11:33:01.769Z,36.93
2018-08-14T11:36:05.154Z,37.89
2018-08-14T11:38:34.427Z,37.50
2018-08-14T11:41:04.069Z,37.30
2018-08-14T11:43:33.057Z,37.13
2018-08-14T11:46:02.221Z,36.65
2018-08-14T11:48:31.174Z,36.07
2018-08-14T11:51:00.571Z,35.62
2018-08-14T11:53:29.763Z,35.44
2018-08-14T11:56:00.079Z,35.37
2018-08-14T11:58:29.216Z,35.16
2018-08-14T12:00:58.052Z,35.08
2018-08-14T12:03:27.414Z,34.97
2018-08-14T12:05:56.150Z,34.19
2018-08-14T12:08:24.823Z,34.33
2018-08-14T12:10:53.782Z,33.93
2018-08-14T12:13:22.545Z,33.64
2018-08-14T12:15:51.442Z,33.57
2018-08-14T12:18:20.154Z,33.42
2018-08-14T12:20:48.879Z,33.30
2018-08-14T12:23:17.639Z,33.22
2018-08-14T12:25:46.475Z,33.14
2018-08-14T12:28:15.137Z,33.09
2018-08-14T12:30:43.752Z,33.10
2018-08-14T12:33:12.507Z,33.15
2018-08-14T12:35:41.257Z,33.17
2018-08-14T12:38:10.195Z,32.51
2018-08-14T12:40:38.892Z,33.22
2018-08-14T12:43:07.535Z,33.24
2018-08-14T12:45:36.425Z,33.26
2018-08-14T12:48:05.896Z,33.22
2018-08-14T12:50:34.909Z,33.22
2018-08-14T12:53:03.602Z,33.23
2018-08-14T12:55:32.334Z,33.28
2018-08-14T12:58:00.995Z,33.29
2018-08-14T13:00:30.663Z,33.20
2018-08-14T13:02:59.192Z,33.13
2018-08-14T13:05:28.639Z,33.06
2018-08-14T13:07:57.798Z,33.12
2018-08-14T13:10:26.576Z,33.22
2018-08-14T13:12:55.173Z,33.28
2018-08-14T13:15:23.866Z,33.23
2018-08-14T13:18:00.363Z,33.13
2018-08-14T13:20:29.018Z,33.05
2018-08-14T13:22:57.852Z,32.96
2018-08-14T13:25:26.609Z,32.87
2018-08-14T13:27:55.304Z,32.83
2018-08-14T13:30:23.908Z,32.81
2018-08-14T13:32:52.506Z,32.79
2018-08-14T13:35:21.045Z,32.68
2018-08-14T13:37:49.572Z,32.63
2018-08-14T13:40:18.273Z,32.64
2018-08-14T13:42:47.404Z,32.63
2018-08-14T13:45:16.023Z,32.61
2018-08-14T13:47:44.797Z,32.72
2018-08-14T13:50:13.979Z,32.81
2018-08-14T13:52:42.604Z,32.82
2018-08-14T13:55:17.391Z,32.77
2018-08-14T13:57:46.507Z,32.66
2018-08-14T14:00:18.707Z,32.53
2018-08-14T14:02:47.435Z,32.50
2018-08-14T14:05:16.300Z,32.44
2018-08-14T14:07:44.915Z,32.35
2018-08-14T14:10:14.899Z,32.26
2018-08-14T14:12:43.698Z,32.17
2018-08-14T14:15:17.445Z,32.15
2018-08-14T14:17:47.447Z,32.14
2018-08-14T14:20:19.633Z,32.20
2018-08-14T14:22:48.238Z,32.34
2018-08-14T14:25:16.906Z,32.45
2018-08-14T14:27:45.608Z,32.44
2018-08-14T14:30:15.974Z,32.38
2018-08-14T14:32:44.968Z,32.36
2018-08-14T14:35:14.203Z,32.34
2018-08-14T14:37:43.167Z,32.32
2018-08-14T14:40:17.890Z,32.32
2018-08-14T14:42:46.519Z,32.34
2018-08-14T14:45:15.504Z,32.41
2018-08-14T14:47:45.973Z,32.42
2018-08-14T14:50:15.636Z,32.44
2018-08-14T14:52:44.793Z,32.48
2018-08-14T14:55:16.786Z,32.46
2018-08-14T14:57:46.068Z,32.49
2018-08-14T15:00:18.587Z,32.50
2018-08-14T15:02:48.777Z,32.43
2018-08-14T15:05:18.811Z,32.27
2018-08-14T15:07:48.624Z,32.15
2018-08-14T15:10:17.352Z,32.09
2018-08-14T15:12:46.670Z,32.06
2018-08-14T15:15:15.326Z,32.02
2018-08-14T15:17:44.930Z,31.94
2018-08-14T15:20:19.719Z,31.88
2018-08-14T15:22:49.452Z,31.79
2018-08-14T15:25:19.788Z,31.66
2018-08-14T15:29:03.079Z,31.61
2018-08-14T15:31:31.952Z,31.47
2018-08-14T15:34:01.023Z,31.42
2018-08-14T15:36:30.846Z,30.89
2018-08-14T15:39:00.864Z,31.33
2018-08-14T15:41:30.515Z,31.24
2018-08-14T15:43:59.597Z,31.15
2018-08-14T15:46:28.239Z,31.10
2018-08-14T15:48:56.890Z,31.06
2018-08-14T15:54:16.106Z,30.90
2018-08-14T15:56:45.086Z,30.82
2018-08-14T15:59:13.947Z,30.73
2018-08-14T16:01:42.832Z,30.67
2018-08-14T16:04:12.913Z,30.58
2018-08-14T16:06:41.529Z,30.58
2018-08-14T16:09:14.786Z,30.56
2018-08-14T16:11:44.588Z,30.48
2018-08-14T16:14:13.429Z,30.45
2018-08-14T16:16:42.119Z,30.40
2018-08-14T16:19:11.981Z,30.34
2018-08-14T16:21:41.096Z,30.30
2018-08-14T16:24:10.126Z,30.26
2018-08-14T16:26:38.840Z,30.17
2018-08-14T16:29:07.605Z,30.08
2018-08-14T16:31:37.212Z,30.02
2018-08-14T16:34:06.008Z,29.94
2018-08-14T16:36:34.668Z,29.85
2018-08-14T16:39:03.318Z,29.19
2018-08-14T16:41:31.912Z,29.68
2018-08-14T16:44:00.593Z,29.61
2018-08-14T16:46:29.382Z,29.51
2018-08-14T16:48:58.108Z,29.48
2018-08-14T16:51:26.705Z,29.46
2018-08-14T16:53:55.344Z,29.45
2018-08-14T16:56:24.019Z,29.43
2018-08-14T16:58:52.763Z,29.43
2018-08-14T17:01:21.553Z,29.42
2018-08-14T17:03:50.279Z,29.38
2018-08-14T17:06:20.676Z,29.29
2018-08-14T17:08:49.954Z,29.21
2018-08-14T17:11:18.537Z,29.14
2018-08-14T17:13:47.544Z,29.06
2018-08-14T17:16:16.227Z,28.98
2018-08-14T17:18:45.030Z,28.86
2018-08-14T17:21:12.474Z,28.82
2018-08-14T17:23:41.150Z,28.77
2018-08-14T17:26:09.963Z,28.68
2018-08-14T17:28:38.632Z,28.65
2018-08-14T17:31:07.594Z,28.61
2018-08-14T17:33:36.277Z,28.58
2018-08-14T17:36:05.687Z,28.53
2018-08-14T17:38:34.387Z,28.49
2018-08-14T17:41:03.091Z,28.47
2018-08-14T17:43:31.748Z,28.42
2018-08-14T17:46:00.590Z,28.38
2018-08-14T17:48:29.516Z,28.33
2018-08-14T17:50:58.164Z,28.27
2018-08-14T17:53:26.923Z,28.21
2018-08-14T17:55:55.592Z,28.09
2018-08-14T17:58:24.306Z,28.03
2018-08-14T18:00:52.909Z,27.94
2018-08-14T18:03:21.576Z,27.90
2018-08-14T18:05:50.266Z,27.80
2018-08-14T18:08:19.128Z,27.73
2018-08-14T18:10:47.713Z,27.63
2018-08-14T18:13:16.564Z,27.51
2018-08-14T18:15:45.190Z,27.39
2018-08-14T18:18:13.846Z,27.29
2018-08-14T18:20:42.511Z,27.20
2018-08-14T18:23:11.170Z,27.15
2018-08-14T18:25:39.810Z,27.12
2018-08-14T18:28:08.530Z,27.05
2018-08-14T18:30:37.068Z,26.99
2018-08-14T18:33:05.768Z,26.94
2018-08-14T18:35:34.452Z,26.88
2018-08-14T18:38:03.101Z,26.85
2018-08-14T18:40:31.649Z,26.82
2018-08-14T18:43:00.471Z,26.80
2018-08-14T18:45:29.197Z,26.07
2018-08-14T18:47:57.872Z,26.74
2018-08-14T18:50:26.511Z,26.71
2018-08-14T18:52:55.175Z,26.69
2018-08-14T18:55:23.764Z,26.67
2018-08-14T18:57:52.357Z,26.64
2018-08-14T19:00:23.262Z,26.61
2018-08-14T19:02:52.703Z,26.57
2018-08-14T19:05:22.138Z,26.53
2018-08-14T19:07:51.027Z,26.50
2018-08-14T19:10:21.174Z,26.46
2018-08-14T19:12:50.793Z,26.42
2018-08-14T19:15:25.788Z,26.42
2018-08-14T19:17:54.672Z,26.37
2018-08-14T19:20:23.519Z,26.34
2018-08-14T19:22:52.137Z,26.31
2018-08-14T19:25:20.745Z,26.29
2018-08-14T19:27:49.510Z,26.26
2018-08-14T19:30:18.166Z,26.24
2018-08-14T19:32:46.839Z,26.21
2018-08-14T19:35:16.285Z,26.22
2018-08-14T19:37:44.945Z,26.20
2018-08-14T19:40:16.013Z,26.19
2018-08-14T19:42:45.087Z,26.20
2018-08-14T19:45:13.770Z,26.20
2018-08-14T19:47:42.607Z,26.21
2018-08-14T19:50:12.462Z,26.20
2018-08-14T19:52:41.060Z,26.20
2018-08-14T19:55:11.763Z,26.21
2018-08-14T19:57:41.152Z,26.20
2018-08-14T20:00:11.313Z,26.18
2018-08-14T20:02:40.335Z,26.17
2018-08-14T20:05:11.057Z,26.17
2018-08-14T20:07:39.780Z,26.16
2018-08-14T20:10:10.220Z,26.16
2018-08-14T20:12:38.940Z,26.15
2018-08-14T20:15:09.573Z,26.12
2018-08-14T20:17:38.296Z,26.10
2018-08-14T20:20:10.200Z,26.07
2018-08-14T20:22:38.765Z,26.05
2018-08-14T20:25:07.588Z,26.06
2018-08-14T20:27:36.169Z,26.05
2018-08-14T20:30:07.396Z,26.03
2018-08-14T20:32:36.005Z,26.00
2018-08-14T20:35:05.811Z,25.99
2018-08-14T20:37:34.402Z,25.96
2018-08-14T20:40:03.226Z,25.91
2018-08-14T20:42:31.803Z,25.89
2018-08-14T20:45:00.389Z,25.85
2018-08-14T20:47:29.689Z,25.78
2018-08-14T20:49:58.367Z,25.73
2018-08-14T20:52:26.890Z,25.68
2018-08-14T20:54:55.609Z,25.63
2018-08-14T20:57:24.147Z,25.59
2018-08-14T20:59:52.788Z,25.54
2018-08-14T21:02:21.337Z,25.48
2018-08-14T21:04:49.960Z,25.43
2018-08-14T21:07:18.480Z,25.37
2018-08-14T21:09:47.080Z,25.33
2018-08-14T21:12:18.337Z,25.28
2018-08-14T21:14:46.944Z,25.26
2018-08-14T21:17:15.638Z,25.23
2018-08-14T21:19:44.256Z,25.23
2018-08-14T21:22:12.837Z,25.23
2018-08-14T21:24:41.386Z,25.23
2018-08-14T21:27:09.969Z,25.24
2018-08-14T21:29:38.553Z,25.24
2018-08-14T21:32:07.086Z,25.25
2018-08-14T21:34:35.709Z,25.24
2018-08-14T21:37:04.269Z,25.26
2018-08-14T21:39:32.830Z,25.27
2018-08-14T21:42:01.416Z,25.27
2018-08-14T21:44:30.126Z,25.27
2018-08-14T21:46:58.681Z,25.28
2018-08-14T21:49:27.225Z,25.27
2018-08-14T21:51:55.898Z,25.24
2018-08-14T21:54:24.600Z,25.24
2018-08-14T21:56:53.213Z,25.26
2018-08-14T21:59:21.823Z,25.27
2018-08-14T22:01:50.697Z,25.25
2018-08-14T22:04:19.513Z,25.23
2018-08-14T22:06:48.285Z,25.20
2018-08-14T22:09:17.074Z,25.16
2018-08-14T22:11:45.859Z,25.12
2018-08-14T22:14:14.733Z,25.10
2018-08-14T22:16:43.600Z,25.07
2018-08-14T22:19:12.872Z,25.05
2018-08-14T22:21:42.062Z,25.02
2018-08-14T22:24:10.816Z,24.98
2018-08-14T22:26:39.727Z,24.90
2018-08-14T22:29:08.364Z,24.86
2018-08-14T22:31:37.203Z,24.82
2018-08-14T22:34:06.107Z,24.80
2018-08-14T22:36:34.906Z,24.76
2018-08-14T22:39:03.834Z,24.71
2018-08-14T22:41:32.592Z,24.66
2018-08-14T22:44:01.469Z,24.60
2018-08-14T22:46:30.247Z,24.50
2018-08-14T22:48:58.982Z,24.45
2018-08-14T22:51:27.746Z,24.37
2018-08-14T22:53:56.400Z,24.27
2018-08-14T22:56:25.200Z,24.21
2018-08-14T22:58:53.970Z,24.13
2018-08-14T23:01:22.972Z,24.07
2018-08-14T23:03:52.680Z,24.02
2018-08-14T23:06:21.568Z,23.97
2018-08-14T23:08:50.422Z,23.91
2018-08-14T23:11:19.332Z,23.85
2018-08-14T23:13:48.132Z,23.78
2018-08-14T23:16:16.991Z,23.72
2018-08-14T23:18:45.877Z,23.67
2018-08-14T23:21:14.803Z,23.63
2018-08-14T23:23:43.601Z,23.58
2018-08-14T23:26:12.392Z,23.53
2018-08-14T23:28:41.378Z,23.49
2018-08-14T23:31:10.303Z,23.48
2018-08-14T23:33:39.208Z,23.44
2018-08-14T23:36:08.249Z,23.42
2018-08-14T23:38:37.111Z,23.41
2018-08-14T23:41:06.057Z,23.41
2018-08-14T23:43:34.815Z,23.42
2018-08-14T23:46:03.723Z,23.41
2018-08-14T23:48:32.467Z,23.39
2018-08-14T23:51:01.477Z,23.35
2018-08-14T23:53:30.379Z,23.32
2018-08-14T23:55:59.111Z,23.28
2018-08-14T23:58:28.058Z,23.24
